sensor_id;sensor_type;location;lat;lon;timestamp;temperature;humidity
39045;DHT22;52192;52.002;5.956;2023-03-01T00:01:31;3.80;55.20
39045;DHT22;52192;52.002;5.956;2023-03-01T00:03:57;3.80;55.20
39045;DHT22;52192;52.002;5.956;2023-03-01T00:06:23;3.80;55.30
39045;DHT22;52192;52.002;5.956;2023-03-01T00:08:50;3.80;55.40
39045;DHT22;52192;52.002;5.956;2023-03-01T00:11:20;3.80;55.40
39045;DHT22;52192;52.002;5.956;2023-03-01T00:13:47;3.80;55.60
39045;DHT22;52192;52.002;5.956;2023-03-01T00:16:16;3.70;55.60
39045;DHT22;52192;52.002;5.956;2023-03-01T00:18:42;3.70;55.70
39045;DHT22;52192;52.002;5.956;2023-03-01T00:21:08;3.70;55.80
39045;DHT22;52192;52.002;5.956;2023-03-01T00:23:34;3.70;55.90
39045;DHT22;52192;52.002;5.956;2023-03-01T00:26:00;3.70;56.00
39045;DHT22;52192;52.002;5.956;2023-03-01T00:28:26;3.60;56.00
39045;DHT22;52192;52.002;5.956;2023-03-01T00:30:51;3.60;56.10
39045;DHT22;52192;52.002;5.956;2023-03-01T00:33:17;3.60;56.30
39045;DHT22;52192;52.002;5.956;2023-03-01T00:35:44;3.60;56.30
39045;DHT22;52192;52.002;5.956;2023-03-01T00:38:10;3.50;56.40
39045;DHT22;52192;52.002;5.956;2023-03-01T00:40:36;3.50;56.40
39045;DHT22;52192;52.002;5.956;2023-03-01T00:43:02;3.50;56.50
39045;DHT22;52192;52.002;5.956;2023-03-01T00:45:28;3.50;56.50
39045;DHT22;52192;52.002;5.956;2023-03-01T00:47:56;3.50;56.60
39045;DHT22;52192;52.002;5.956;2023-03-01T00:50:22;3.50;56.60
39045;DHT22;52192;52.002;5.956;2023-03-01T00:52:53;3.50;56.60
39045;DHT22;52192;52.002;5.956;2023-03-01T00:55:19;3.50;56.60
39045;DHT22;52192;52.002;5.956;2023-03-01T00:57:44;3.50;56.70
39045;DHT22;52192;52.002;5.956;2023-03-01T01:00:11;3.40;56.60
39045;DHT22;52192;52.002;5.956;2023-03-01T01:02:36;3.40;56.70
39045;DHT22;52192;52.002;5.956;2023-03-01T01:05:03;3.40;56.70
39045;DHT22;52192;52.002;5.956;2023-03-01T01:07:29;3.40;56.90
39045;DHT22;52192;52.002;5.956;2023-03-01T01:09:54;3.40;57.00
39045;DHT22;52192;52.002;5.956;2023-03-01T01:12:20;3.30;57.00
39045;DHT22;52192;52.002;5.956;2023-03-01T01:14:46;3.30;57.00
39045;DHT22;52192;52.002;5.956;2023-03-01T01:17:12;3.30;57.00
39045;DHT22;52192;52.002;5.956;2023-03-01T01:19:37;3.30;57.10
39045;DHT22;52192;52.002;5.956;2023-03-01T01:22:03;3.20;57.10
39045;DHT22;52192;52.002;5.956;2023-03-01T01:24:29;3.20;57.00
39045;DHT22;52192;52.002;5.956;2023-03-01T01:26:55;3.20;57.20
39045;DHT22;52192;52.002;5.956;2023-03-01T01:29:21;3.20;57.20
39045;DHT22;52192;52.002;5.956;2023-03-01T01:31:46;3.20;57.20
39045;DHT22;52192;52.002;5.956;2023-03-01T01:34:15;3.20;57.20
39045;DHT22;52192;52.002;5.956;2023-03-01T01:36:41;3.20;57.20
39045;DHT22;52192;52.002;5.956;2023-03-01T01:39:07;3.20;57.20
39045;DHT22;52192;52.002;5.956;2023-03-01T01:41:32;3.10;57.20
39045;DHT22;52192;52.002;5.956;2023-03-01T01:44:19;3.10;57.20
39045;DHT22;52192;52.002;5.956;2023-03-01T01:46:52;3.10;57.20
39045;DHT22;52192;52.002;5.956;2023-03-01T01:49:22;3.10;57.20
39045;DHT22;52192;52.002;5.956;2023-03-01T01:51:53;3.00;57.30
39045;DHT22;52192;52.002;5.956;2023-03-01T01:57:13;3.00;57.30
39045;DHT22;52192;52.002;5.956;2023-03-01T01:59:42;3.00;57.20
39045;DHT22;52192;52.002;5.956;2023-03-01T02:02:09;3.00;57.20
39045;DHT22;52192;52.002;5.956;2023-03-01T02:04:34;3.00;57.30
39045;DHT22;52192;52.002;5.956;2023-03-01T02:07:16;3.00;57.30
39045;DHT22;52192;52.002;5.956;2023-03-01T02:09:46;3.00;57.20
39045;DHT22;52192;52.002;5.956;2023-03-01T02:12:13;3.00;57.30
39045;DHT22;52192;52.002;5.956;2023-03-01T02:14:39;3.00;57.40
39045;DHT22;52192;52.002;5.956;2023-03-01T02:17:05;3.00;57.50
39045;DHT22;52192;52.002;5.956;2023-03-01T02:22:35;3.00;57.50
39045;DHT22;52192;52.002;5.956;2023-03-01T02:30:13;2.90;57.70
39045;DHT22;52192;52.002;5.956;2023-03-01T02:32:42;2.90;57.80
39045;DHT22;52192;52.002;5.956;2023-03-01T02:35:14;2.90;57.70
39045;DHT22;52192;52.002;5.956;2023-03-01T02:37:42;2.90;57.80
39045;DHT22;52192;52.002;5.956;2023-03-01T02:40:12;2.80;57.80
39045;DHT22;52192;52.002;5.956;2023-03-01T02:42:58;2.90;58.10
39045;DHT22;52192;52.002;5.956;2023-03-01T02:45:25;2.90;58.20
39045;DHT22;52192;52.002;5.956;2023-03-01T02:47:54;2.80;58.10
39045;DHT22;52192;52.002;5.956;2023-03-01T02:55:39;2.90;58.20
39045;DHT22;52192;52.002;5.956;2023-03-01T02:58:05;2.80;58.20
39045;DHT22;52192;52.002;5.956;2023-03-01T03:00:38;2.80;58.40
39045;DHT22;52192;52.002;5.956;2023-03-01T03:03:06;2.80;58.50
39045;DHT22;52192;52.002;5.956;2023-03-01T03:05:33;2.80;58.50
39045;DHT22;52192;52.002;5.956;2023-03-01T03:08:00;2.80;58.60
39045;DHT22;52192;52.002;5.956;2023-03-01T03:10:32;2.80;58.50
39045;DHT22;52192;52.002;5.956;2023-03-01T03:13:09;2.80;58.60
39045;DHT22;52192;52.002;5.956;2023-03-01T03:15:35;2.70;58.50
39045;DHT22;52192;52.002;5.956;2023-03-01T03:18:02;2.70;58.50
39045;DHT22;52192;52.002;5.956;2023-03-01T03:20:29;2.70;58.60
39045;DHT22;52192;52.002;5.956;2023-03-01T03:22:56;2.80;58.60
39045;DHT22;52192;52.002;5.956;2023-03-01T03:25:24;2.70;58.50
39045;DHT22;52192;52.002;5.956;2023-03-01T03:27:51;2.70;58.50
39045;DHT22;52192;52.002;5.956;2023-03-01T03:30:30;2.70;58.60
39045;DHT22;52192;52.002;5.956;2023-03-01T03:32:58;2.70;58.70
39045;DHT22;52192;52.002;5.956;2023-03-01T03:35:28;2.70;58.80
39045;DHT22;52192;52.002;5.956;2023-03-01T03:37:56;2.70;58.90
39045;DHT22;52192;52.002;5.956;2023-03-01T03:40:32;2.70;58.90
39045;DHT22;52192;52.002;5.956;2023-03-01T03:42:58;2.60;59.00
39045;DHT22;52192;52.002;5.956;2023-03-01T03:45:24;2.60;59.20
39045;DHT22;52192;52.002;5.956;2023-03-01T03:47:50;2.60;59.20
39045;DHT22;52192;52.002;5.956;2023-03-01T03:50:17;2.60;59.30
39045;DHT22;52192;52.002;5.956;2023-03-01T03:52:44;2.50;59.30
39045;DHT22;52192;52.002;5.956;2023-03-01T03:55:11;2.50;59.40
39045;DHT22;52192;52.002;5.956;2023-03-01T03:57:39;2.50;59.40
39045;DHT22;52192;52.002;5.956;2023-03-01T04:00:07;2.50;59.50
39045;DHT22;52192;52.002;5.956;2023-03-01T04:02:39;2.50;59.60
39045;DHT22;52192;52.002;5.956;2023-03-01T04:05:06;2.50;59.60
39045;DHT22;52192;52.002;5.956;2023-03-01T04:07:32;2.50;59.60
39045;DHT22;52192;52.002;5.956;2023-03-01T04:09:57;2.50;59.60
39045;DHT22;52192;52.002;5.956;2023-03-01T04:12:23;2.50;60.30
39045;DHT22;52192;52.002;5.956;2023-03-01T04:14:49;2.40;59.80
39045;DHT22;52192;52.002;5.956;2023-03-01T04:17:14;2.40;59.90
39045;DHT22;52192;52.002;5.956;2023-03-01T04:19:40;2.40;60.00
39045;DHT22;52192;52.002;5.956;2023-03-01T04:22:09;2.40;60.10
39045;DHT22;52192;52.002;5.956;2023-03-01T04:24:36;2.40;60.10
39045;DHT22;52192;52.002;5.956;2023-03-01T04:27:02;2.40;60.10
39045;DHT22;52192;52.002;5.956;2023-03-01T04:29:28;2.40;60.00
39045;DHT22;52192;52.002;5.956;2023-03-01T04:31:54;2.40;60.20
39045;DHT22;52192;52.002;5.956;2023-03-01T04:34:20;2.30;60.20
39045;DHT22;52192;52.002;5.956;2023-03-01T04:36:46;2.30;60.40
39045;DHT22;52192;52.002;5.956;2023-03-01T04:39:11;2.30;60.60
39045;DHT22;52192;52.002;5.956;2023-03-01T04:41:40;2.30;60.80
39045;DHT22;52192;52.002;5.956;2023-03-01T04:44:06;2.30;60.80
39045;DHT22;52192;52.002;5.956;2023-03-01T04:46:32;2.20;60.90
39045;DHT22;52192;52.002;5.956;2023-03-01T04:48:58;2.30;61.00
39045;DHT22;52192;52.002;5.956;2023-03-01T04:51:23;2.20;60.90
39045;DHT22;52192;52.002;5.956;2023-03-01T04:53:50;2.30;61.10
39045;DHT22;52192;52.002;5.956;2023-03-01T04:56:16;2.20;61.20
39045;DHT22;52192;52.002;5.956;2023-03-01T04:58:44;2.20;61.30
39045;DHT22;52192;52.002;5.956;2023-03-01T05:01:16;2.30;61.30
39045;DHT22;52192;52.002;5.956;2023-03-01T05:03:44;2.30;61.30
39045;DHT22;52192;52.002;5.956;2023-03-01T05:06:10;2.20;61.30
39045;DHT22;52192;52.002;5.956;2023-03-01T05:08:38;2.20;61.30
39045;DHT22;52192;52.002;5.956;2023-03-01T05:11:04;2.20;61.40
39045;DHT22;52192;52.002;5.956;2023-03-01T05:13:31;2.20;61.30
39045;DHT22;52192;52.002;5.956;2023-03-01T05:15:59;2.20;61.30
39045;DHT22;52192;52.002;5.956;2023-03-01T05:18:27;2.20;61.30
39045;DHT22;52192;52.002;5.956;2023-03-01T05:20:54;2.20;61.40
39045;DHT22;52192;52.002;5.956;2023-03-01T05:23:24;2.20;61.40
39045;DHT22;52192;52.002;5.956;2023-03-01T05:25:49;2.20;61.40
39045;DHT22;52192;52.002;5.956;2023-03-01T05:28:18;2.20;61.40
39045;DHT22;52192;52.002;5.956;2023-03-01T05:30:45;2.10;61.50
39045;DHT22;52192;52.002;5.956;2023-03-01T05:33:11;2.10;61.40
39045;DHT22;52192;52.002;5.956;2023-03-01T05:35:41;2.10;61.50
39045;DHT22;52192;52.002;5.956;2023-03-01T05:38:07;2.10;61.60
39045;DHT22;52192;52.002;5.956;2023-03-01T05:40:34;2.10;61.70
39045;DHT22;52192;52.002;5.956;2023-03-01T05:42:59;2.10;61.70
39045;DHT22;52192;52.002;5.956;2023-03-01T05:45:26;2.10;61.80
39045;DHT22;52192;52.002;5.956;2023-03-01T05:47:53;2.10;61.70
39045;DHT22;52192;52.002;5.956;2023-03-01T05:50:28;2.10;61.70
39045;DHT22;52192;52.002;5.956;2023-03-01T05:55:25;2.00;61.80
39045;DHT22;52192;52.002;5.956;2023-03-01T05:57:51;2.00;62.00
39045;DHT22;52192;52.002;5.956;2023-03-01T06:00:18;2.00;62.10
39045;DHT22;52192;52.002;5.956;2023-03-01T06:02:45;1.90;62.00
39045;DHT22;52192;52.002;5.956;2023-03-01T06:05:12;1.90;62.60
39045;DHT22;52192;52.002;5.956;2023-03-01T06:07:38;1.90;62.20
39045;DHT22;52192;52.002;5.956;2023-03-01T06:10:05;1.90;62.20
39045;DHT22;52192;52.002;5.956;2023-03-01T06:12:34;1.90;62.20
39045;DHT22;52192;52.002;5.956;2023-03-01T06:15:01;1.90;62.30
39045;DHT22;52192;52.002;5.956;2023-03-01T06:17:30;1.90;62.40
39045;DHT22;52192;52.002;5.956;2023-03-01T06:19:56;1.90;62.50
39045;DHT22;52192;52.002;5.956;2023-03-01T06:22:21;1.90;62.60
39045;DHT22;52192;52.002;5.956;2023-03-01T06:24:47;1.90;62.60
39045;DHT22;52192;52.002;5.956;2023-03-01T06:27:13;1.90;62.60
39045;DHT22;52192;52.002;5.956;2023-03-01T06:29:38;1.90;62.60
39045;DHT22;52192;52.002;5.956;2023-03-01T06:32:04;1.90;62.60
39045;DHT22;52192;52.002;5.956;2023-03-01T06:34:30;1.90;62.60
39045;DHT22;52192;52.002;5.956;2023-03-01T06:36:56;1.90;62.70
39045;DHT22;52192;52.002;5.956;2023-03-01T06:39:22;1.90;62.70
39045;DHT22;52192;52.002;5.956;2023-03-01T06:41:47;1.90;62.70
39045;DHT22;52192;52.002;5.956;2023-03-01T06:44:13;1.90;62.70
39045;DHT22;52192;52.002;5.956;2023-03-01T06:46:40;1.90;62.70
39045;DHT22;52192;52.002;5.956;2023-03-01T06:49:06;1.90;62.80
39045;DHT22;52192;52.002;5.956;2023-03-01T06:51:35;1.90;62.90
39045;DHT22;52192;52.002;5.956;2023-03-01T06:54:03;1.90;63.00
39045;DHT22;52192;52.002;5.956;2023-03-01T06:56:29;1.90;63.00
39045;DHT22;52192;52.002;5.956;2023-03-01T06:58:54;1.90;63.10
39045;DHT22;52192;52.002;5.956;2023-03-01T07:01:20;1.90;63.10
39045;DHT22;52192;52.002;5.956;2023-03-01T07:03:46;1.90;63.20
39045;DHT22;52192;52.002;5.956;2023-03-01T07:06:11;1.90;63.20
39045;DHT22;52192;52.002;5.956;2023-03-01T07:08:37;1.90;63.30
39045;DHT22;52192;52.002;5.956;2023-03-01T07:11:03;1.90;63.30
39045;DHT22;52192;52.002;5.956;2023-03-01T07:13:29;1.90;63.30
39045;DHT22;52192;52.002;5.956;2023-03-01T07:15:55;1.90;63.30
39045;DHT22;52192;52.002;5.956;2023-03-01T07:18:21;2.00;63.40
39045;DHT22;52192;52.002;5.956;2023-03-01T07:20:46;2.00;63.30
39045;DHT22;52192;52.002;5.956;2023-03-01T07:23:12;2.10;63.20
39045;DHT22;52192;52.002;5.956;2023-03-01T07:25:38;2.10;63.10
39045;DHT22;52192;52.002;5.956;2023-03-01T07:28:04;2.20;63.00
39045;DHT22;52192;52.002;5.956;2023-03-01T07:30:29;2.30;62.90
39045;DHT22;52192;52.002;5.956;2023-03-01T07:32:56;2.30;62.70
39045;DHT22;52192;52.002;5.956;2023-03-01T07:35:23;2.40;62.50
39045;DHT22;52192;52.002;5.956;2023-03-01T07:37:50;2.50;62.30
39045;DHT22;52192;52.002;5.956;2023-03-01T07:40:16;2.60;62.20
39045;DHT22;52192;52.002;5.956;2023-03-01T07:42:41;2.70;62.00
39045;DHT22;52192;52.002;5.956;2023-03-01T07:45:07;2.80;61.80
39045;DHT22;52192;52.002;5.956;2023-03-01T07:47:33;2.80;61.60
39045;DHT22;52192;52.002;5.956;2023-03-01T07:49:59;2.90;61.50
39045;DHT22;52192;52.002;5.956;2023-03-01T07:52:26;3.00;61.40
39045;DHT22;52192;52.002;5.956;2023-03-01T07:54:52;3.10;61.20
39045;DHT22;52192;52.002;5.956;2023-03-01T07:57:17;3.20;61.00
39045;DHT22;52192;52.002;5.956;2023-03-01T07:59:43;3.30;60.90
39045;DHT22;52192;52.002;5.956;2023-03-01T08:02:10;3.40;60.70
39045;DHT22;52192;52.002;5.956;2023-03-01T08:04:36;3.50;60.60
39045;DHT22;52192;52.002;5.956;2023-03-01T08:07:04;3.70;60.40
39045;DHT22;52192;52.002;5.956;2023-03-01T08:09:30;3.80;60.20
39045;DHT22;52192;52.002;5.956;2023-03-01T08:11:57;3.80;60.00
39045;DHT22;52192;52.002;5.956;2023-03-01T08:14:25;4.00;60.00
39045;DHT22;52192;52.002;5.956;2023-03-01T08:16:50;4.00;59.80
39045;DHT22;52192;52.002;5.956;2023-03-01T08:19:16;4.10;59.60
39045;DHT22;52192;52.002;5.956;2023-03-01T08:21:42;4.20;59.50
39045;DHT22;52192;52.002;5.956;2023-03-01T08:24:08;4.30;59.30
39045;DHT22;52192;52.002;5.956;2023-03-01T08:26:36;4.30;59.20
39045;DHT22;52192;52.002;5.956;2023-03-01T08:29:02;4.40;59.10
39045;DHT22;52192;52.002;5.956;2023-03-01T08:31:34;4.50;59.00
39045;DHT22;52192;52.002;5.956;2023-03-01T08:34:02;4.60;58.60
39045;DHT22;52192;52.002;5.956;2023-03-01T08:36:31;4.60;58.40
39045;DHT22;52192;52.002;5.956;2023-03-01T08:38:57;4.70;58.30
39045;DHT22;52192;52.002;5.956;2023-03-01T08:41:23;4.80;58.00
39045;DHT22;52192;52.002;5.956;2023-03-01T08:43:50;4.90;57.80
39045;DHT22;52192;52.002;5.956;2023-03-01T08:46:15;5.00;57.60
39045;DHT22;52192;52.002;5.956;2023-03-01T08:48:41;5.10;57.50
39045;DHT22;52192;52.002;5.956;2023-03-01T08:51:14;5.20;57.20
39045;DHT22;52192;52.002;5.956;2023-03-01T08:53:40;5.30;57.10
39045;DHT22;52192;52.002;5.956;2023-03-01T08:56:07;5.40;56.90
39045;DHT22;52192;52.002;5.956;2023-03-01T08:58:33;5.50;56.60
39045;DHT22;52192;52.002;5.956;2023-03-01T09:00:59;5.60;56.20
39045;DHT22;52192;52.002;5.956;2023-03-01T09:03:26;5.70;55.90
39045;DHT22;52192;52.002;5.956;2023-03-01T09:05:52;5.80;55.70
39045;DHT22;52192;52.002;5.956;2023-03-01T09:08:19;5.90;55.50
39045;DHT22;52192;52.002;5.956;2023-03-01T09:10:45;6.10;55.40
39045;DHT22;52192;52.002;5.956;2023-03-01T09:13:11;6.20;55.00
39045;DHT22;52192;52.002;5.956;2023-03-01T09:15:38;6.30;54.90
39045;DHT22;52192;52.002;5.956;2023-03-01T09:18:04;6.50;54.60
39045;DHT22;52192;52.002;5.956;2023-03-01T09:20:31;6.70;54.50
39045;DHT22;52192;52.002;5.956;2023-03-01T09:22:57;6.70;53.80
39045;DHT22;52192;52.002;5.956;2023-03-01T09:25:23;6.80;53.70
39045;DHT22;52192;52.002;5.956;2023-03-01T09:27:53;7.00;53.50
39045;DHT22;52192;52.002;5.956;2023-03-01T09:30:20;7.10;53.20
39045;DHT22;52192;52.002;5.956;2023-03-01T09:32:46;7.30;52.90
39045;DHT22;52192;52.002;5.956;2023-03-01T09:35:12;7.40;52.70
39045;DHT22;52192;52.002;5.956;2023-03-01T09:37:38;7.50;52.60
39045;DHT22;52192;52.002;5.956;2023-03-01T09:40:19;7.70;52.20
39045;DHT22;52192;52.002;5.956;2023-03-01T09:43:02;7.80;51.80
39045;DHT22;52192;52.002;5.956;2023-03-01T09:45:35;8.00;51.20
39045;DHT22;52192;52.002;5.956;2023-03-01T09:48:04;8.00;50.80
39045;DHT22;52192;52.002;5.956;2023-03-01T09:50:40;8.00;50.60
39045;DHT22;52192;52.002;5.956;2023-03-01T09:53:14;8.10;50.30
39045;DHT22;52192;52.002;5.956;2023-03-01T09:55:48;8.10;50.20
39045;DHT22;52192;52.002;5.956;2023-03-01T09:58:37;8.20;50.20
39045;DHT22;52192;52.002;5.956;2023-03-01T10:07:21;8.40;49.10
39045;DHT22;52192;52.002;5.956;2023-03-01T10:09:48;8.40;48.60
39045;DHT22;52192;52.002;5.956;2023-03-01T10:12:17;8.40;48.20
39045;DHT22;52192;52.002;5.956;2023-03-01T10:15:04;8.50;48.40
39045;DHT22;52192;52.002;5.956;2023-03-01T10:17:47;8.60;47.90
39045;DHT22;52192;52.002;5.956;2023-03-01T10:20:22;8.70;47.90
39045;DHT22;52192;52.002;5.956;2023-03-01T10:22:49;8.80;47.80
39045;DHT22;52192;52.002;5.956;2023-03-01T10:30:41;9.10;47.00
39045;DHT22;52192;52.002;5.956;2023-03-01T10:33:23;9.20;46.90
39045;DHT22;52192;52.002;5.956;2023-03-01T10:35:49;9.30;46.50
39045;DHT22;52192;52.002;5.956;2023-03-01T10:38:16;9.40;46.20
39045;DHT22;52192;52.002;5.956;2023-03-01T10:41:08;9.50;46.30
39045;DHT22;52192;52.002;5.956;2023-03-01T10:43:55;9.70;45.90
39045;DHT22;52192;52.002;5.956;2023-03-01T10:46:28;9.80;45.60
39045;DHT22;52192;52.002;5.956;2023-03-01T10:49:21;9.90;44.80
39045;DHT22;52192;52.002;5.956;2023-03-01T10:51:50;10.00;44.60
39045;DHT22;52192;52.002;5.956;2023-03-01T10:54:22;10.10;44.50
39045;DHT22;52192;52.002;5.956;2023-03-01T10:56:52;10.30;44.50
39045;DHT22;52192;52.002;5.956;2023-03-01T10:59:39;10.30;43.90
39045;DHT22;52192;52.002;5.956;2023-03-01T11:02:23;10.50;43.70
39045;DHT22;52192;52.002;5.956;2023-03-01T11:05:01;10.60;43.60
39045;DHT22;52192;52.002;5.956;2023-03-01T11:07:27;10.80;43.20
39045;DHT22;52192;52.002;5.956;2023-03-01T11:09:52;10.90;43.10
39045;DHT22;52192;52.002;5.956;2023-03-01T11:12:19;11.10;42.80
39045;DHT22;52192;52.002;5.956;2023-03-01T11:14:54;11.20;42.20
39045;DHT22;52192;52.002;5.956;2023-03-01T11:17:29;11.40;42.10
39045;DHT22;52192;52.002;5.956;2023-03-01T11:22:33;11.60;41.10
39045;DHT22;52192;52.002;5.956;2023-03-01T11:25:00;11.70;41.10
39045;DHT22;52192;52.002;5.956;2023-03-01T11:27:30;11.70;41.20
39045;DHT22;52192;52.002;5.956;2023-03-01T11:30:07;11.70;40.80
39045;DHT22;52192;52.002;5.956;2023-03-01T11:32:46;11.80;40.30
39045;DHT22;52192;52.002;5.956;2023-03-01T11:35:18;11.90;40.00
39045;DHT22;52192;52.002;5.956;2023-03-01T11:40:34;11.90;39.90
39045;DHT22;52192;52.002;5.956;2023-03-01T11:43:19;12.00;39.50
39045;DHT22;52192;52.002;5.956;2023-03-01T11:48:49;12.40;39.50
39045;DHT22;52192;52.002;5.956;2023-03-01T11:51:24;12.40;38.80
39045;DHT22;52192;52.002;5.956;2023-03-01T11:56:42;12.50;38.80
39045;DHT22;52192;52.002;5.956;2023-03-01T12:07:56;12.70;38.30
39045;DHT22;52192;52.002;5.956;2023-03-01T12:10:33;12.90;38.40
39045;DHT22;52192;52.002;5.956;2023-03-01T12:15:57;13.00;37.80
39045;DHT22;52192;52.002;5.956;2023-03-01T12:26:35;13.10;37.30
39045;DHT22;52192;52.002;5.956;2023-03-01T12:32:20;13.50;36.50
39045;DHT22;52192;52.002;5.956;2023-03-01T12:43:10;14.00;35.20
39045;DHT22;52192;52.002;5.956;2023-03-01T12:51:24;14.20;34.70
39045;DHT22;52192;52.002;5.956;2023-03-01T12:53:54;14.30;35.00
39045;DHT22;52192;52.002;5.956;2023-03-01T12:56:29;14.40;34.30
39045;DHT22;52192;52.002;5.956;2023-03-01T13:07:34;14.30;33.80
39045;DHT22;52192;52.002;5.956;2023-03-01T13:17:54;15.50;32.80
39045;DHT22;52192;52.002;5.956;2023-03-01T13:21:06;16.00;32.00
39045;DHT22;52192;52.002;5.956;2023-03-01T13:31:01;19.80;28.60
39045;DHT22;52192;52.002;5.956;2023-03-01T13:35:57;21.10;27.90
39045;DHT22;52192;52.002;5.956;2023-03-01T13:49:47;24.80;24.90
39045;DHT22;52192;52.002;5.956;2023-03-01T13:54:57;26.50;24.10
39045;DHT22;52192;52.002;5.956;2023-03-01T13:57:28;27.10;23.80
39045;DHT22;52192;52.002;5.956;2023-03-01T13:59:55;27.60;23.70
39045;DHT22;52192;52.002;5.956;2023-03-01T14:02:20;28.10;23.70
39045;DHT22;52192;52.002;5.956;2023-03-01T14:04:57;28.40;23.60
39045;DHT22;52192;52.002;5.956;2023-03-01T14:07:24;28.80;23.40
39045;DHT22;52192;52.002;5.956;2023-03-01T14:09:56;29.10;23.10
39045;DHT22;52192;52.002;5.956;2023-03-01T14:15:22;29.40;23.00
39045;DHT22;52192;52.002;5.956;2023-03-01T14:18:01;29.30;22.70
39045;DHT22;52192;52.002;5.956;2023-03-01T14:20:38;29.40;22.70
39045;DHT22;52192;52.002;5.956;2023-03-01T14:23:11;29.50;22.70
39045;DHT22;52192;52.002;5.956;2023-03-01T14:25:37;29.60;22.60
39045;DHT22;52192;52.002;5.956;2023-03-01T14:30:47;30.10;22.30
39045;DHT22;52192;52.002;5.956;2023-03-01T14:35:59;29.70;22.20
39045;DHT22;52192;52.002;5.956;2023-03-01T14:38:46;29.50;22.30
39045;DHT22;52192;52.002;5.956;2023-03-01T14:41:18;29.40;21.90
39045;DHT22;52192;52.002;5.956;2023-03-01T14:43:51;29.50;22.00
39045;DHT22;52192;52.002;5.956;2023-03-01T14:46:31;29.70;21.80
39045;DHT22;52192;52.002;5.956;2023-03-01T14:51:38;29.70;21.80
39045;DHT22;52192;52.002;5.956;2023-03-01T14:56:52;29.90;21.50
39045;DHT22;52192;52.002;5.956;2023-03-01T14:59:22;29.90;21.40
39045;DHT22;52192;52.002;5.956;2023-03-01T15:01:53;29.90;21.50
39045;DHT22;52192;52.002;5.956;2023-03-01T15:04:22;29.80;21.50
39045;DHT22;52192;52.002;5.956;2023-03-01T15:06:51;29.80;21.50
39045;DHT22;52192;52.002;5.956;2023-03-01T15:09:17;29.70;21.20
39045;DHT22;52192;52.002;5.956;2023-03-01T15:11:44;29.60;21.40
39045;DHT22;52192;52.002;5.956;2023-03-01T15:16:52;29.60;21.60
39045;DHT22;52192;52.002;5.956;2023-03-01T15:19:18;29.70;21.50
39045;DHT22;52192;52.002;5.956;2023-03-01T15:21:47;29.50;21.40
39045;DHT22;52192;52.002;5.956;2023-03-01T15:26:51;28.90;21.50
39045;DHT22;52192;52.002;5.956;2023-03-01T15:29:26;28.30;21.50
39045;DHT22;52192;52.002;5.956;2023-03-01T15:32:01;27.70;21.90
39045;DHT22;52192;52.002;5.956;2023-03-01T15:34:35;27.40;22.10
39045;DHT22;52192;52.002;5.956;2023-03-01T15:37:06;27.20;22.20
39045;DHT22;52192;52.002;5.956;2023-03-01T15:39:56;26.80;22.20
39045;DHT22;52192;52.002;5.956;2023-03-01T15:45:10;25.10;22.90
39045;DHT22;52192;52.002;5.956;2023-03-01T15:47:39;24.70;23.10
39045;DHT22;52192;52.002;5.956;2023-03-01T15:50:14;24.30;23.40
39045;DHT22;52192;52.002;5.956;2023-03-01T15:52:42;24.10;23.50
39045;DHT22;52192;52.002;5.956;2023-03-01T15:55:21;23.90;23.50
39045;DHT22;52192;52.002;5.956;2023-03-01T15:57:47;23.60;23.50
39045;DHT22;52192;52.002;5.956;2023-03-01T16:00:14;22.90;23.70
39045;DHT22;52192;52.002;5.956;2023-03-01T16:02:42;22.10;24.20
39045;DHT22;52192;52.002;5.956;2023-03-01T16:05:21;21.40;25.20
39045;DHT22;52192;52.002;5.956;2023-03-01T16:07:48;20.80;25.10
39045;DHT22;52192;52.002;5.956;2023-03-01T16:10:15;20.60;25.30
39045;DHT22;52192;52.002;5.956;2023-03-01T16:12:40;20.50;25.40
39045;DHT22;52192;52.002;5.956;2023-03-01T16:15:19;20.00;25.40
39045;DHT22;52192;52.002;5.956;2023-03-01T16:17:45;19.20;25.80
39045;DHT22;52192;52.002;5.956;2023-03-01T16:20:11;18.10;26.40
39045;DHT22;52192;52.002;5.956;2023-03-01T16:22:37;17.30;27.00
39045;DHT22;52192;52.002;5.956;2023-03-01T16:25:03;16.50;27.50
39045;DHT22;52192;52.002;5.956;2023-03-01T16:27:29;16.00;28.00
39045;DHT22;52192;52.002;5.956;2023-03-01T16:29:54;15.50;28.30
39045;DHT22;52192;52.002;5.956;2023-03-01T16:32:20;15.20;28.70
39045;DHT22;52192;52.002;5.956;2023-03-01T16:34:46;14.80;29.00
39045;DHT22;52192;52.002;5.956;2023-03-01T16:37:15;14.60;29.30
39045;DHT22;52192;52.002;5.956;2023-03-01T16:39:40;14.30;29.70
39045;DHT22;52192;52.002;5.956;2023-03-01T16:42:06;14.10;29.90
39045;DHT22;52192;52.002;5.956;2023-03-01T16:44:32;13.90;30.20
39045;DHT22;52192;52.002;5.956;2023-03-01T16:46:57;13.70;30.30
39045;DHT22;52192;52.002;5.956;2023-03-01T16:49:23;13.50;30.70
39045;DHT22;52192;52.002;5.956;2023-03-01T16:51:49;13.40;31.40
39045;DHT22;52192;52.002;5.956;2023-03-01T16:54:14;13.20;31.40
39045;DHT22;52192;52.002;5.956;2023-03-01T16:56:40;13.10;31.60
39045;DHT22;52192;52.002;5.956;2023-03-01T16:59:07;13.00;32.00
39045;DHT22;52192;52.002;5.956;2023-03-01T17:01:32;12.90;32.30
39045;DHT22;52192;52.002;5.956;2023-03-01T17:04:00;12.70;32.70
39045;DHT22;52192;52.002;5.956;2023-03-01T17:06:26;12.60;33.00
39045;DHT22;52192;52.002;5.956;2023-03-01T17:08:52;12.50;33.20
39045;DHT22;52192;52.002;5.956;2023-03-01T17:11:19;12.40;33.40
39045;DHT22;52192;52.002;5.956;2023-03-01T17:13:46;12.30;33.70
39045;DHT22;52192;52.002;5.956;2023-03-01T17:16:14;12.20;34.00
39045;DHT22;52192;52.002;5.956;2023-03-01T17:18:41;12.10;34.60
39045;DHT22;52192;52.002;5.956;2023-03-01T17:21:07;12.00;35.00
39045;DHT22;52192;52.002;5.956;2023-03-01T17:23:35;11.90;35.00
39045;DHT22;52192;52.002;5.956;2023-03-01T17:26:02;11.80;35.50
39045;DHT22;52192;52.002;5.956;2023-03-01T17:28:29;11.70;35.60
39045;DHT22;52192;52.002;5.956;2023-03-01T17:30:56;11.60;35.80
39045;DHT22;52192;52.002;5.956;2023-03-01T17:33:21;11.50;35.90
39045;DHT22;52192;52.002;5.956;2023-03-01T17:35:48;11.40;36.40
39045;DHT22;52192;52.002;5.956;2023-03-01T17:38:14;11.30;36.80
39045;DHT22;52192;52.002;5.956;2023-03-01T17:40:41;11.20;37.10
39045;DHT22;52192;52.002;5.956;2023-03-01T17:43:08;11.10;37.40
39045;DHT22;52192;52.002;5.956;2023-03-01T17:45:36;11.00;37.70
39045;DHT22;52192;52.002;5.956;2023-03-01T17:48:03;10.90;37.90
39045;DHT22;52192;52.002;5.956;2023-03-01T17:50:28;10.70;38.20
39045;DHT22;52192;52.002;5.956;2023-03-01T17:52:54;10.60;38.30
39045;DHT22;52192;52.002;5.956;2023-03-01T17:55:21;10.60;38.40
39045;DHT22;52192;52.002;5.956;2023-03-01T17:57:47;10.50;38.60
39045;DHT22;52192;52.002;5.956;2023-03-01T18:00:14;10.40;38.90
39045;DHT22;52192;52.002;5.956;2023-03-01T18:02:40;10.30;39.00
39045;DHT22;52192;52.002;5.956;2023-03-01T18:05:06;10.20;39.20
39045;DHT22;52192;52.002;5.956;2023-03-01T18:07:33;10.10;39.30
39045;DHT22;52192;52.002;5.956;2023-03-01T18:09:58;10.10;39.60